sensor_id;sensor_type;location;lat;lon;timestamp;P1;durP1;ratioP1;P2;durP2;ratioP2
72388;SDS011;60566;48.062;9.930;2022-07-29T00:01:31;6.78;;;4.43;;
72388;SDS011;60566;48.062;9.930;2022-07-29T00:03:58;7.72;;;4.35;;
72388;SDS011;60566;48.062;9.930;2022-07-29T00:06:23;6.00;;;4.35;;
72388;SDS011;60566;48.062;9.930;2022-07-29T00:08:48;9.45;;;4.63;;
72388;SDS011;60566;48.062;9.930;2022-07-29T00:11:14;7.38;;;4.53;;
72388;SDS011;60566;48.062;9.930;2022-07-29T00:13:39;6.22;;;4.05;;
72388;SDS011;60566;48.062;9.930;2022-07-29T00:16:04;8.05;;;5.05;;
72388;SDS011;60566;48.062;9.930;2022-07-29T00:18:30;7.57;;;4.78;;
72388;SDS011;60566;48.062;9.930;2022-07-29T00:20:57;6.95;;;3.95;;
72388;SDS011;60566;48.062;9.930;2022-07-29T00:23:22;7.93;;;5.03;;
72388;SDS011;60566;48.062;9.930;2022-07-29T00:25:47;7.13;;;5.00;;
72388;SDS011;60566;48.062;9.930;2022-07-29T00:28:13;6.78;;;4.32;;
72388;SDS011;60566;48.062;9.930;2022-07-29T00:30:38;6.40;;;4.45;;
72388;SDS011;60566;48.062;9.930;2022-07-29T00:33:03;8.65;;;4.80;;
72388;SDS011;60566;48.062;9.930;2022-07-29T00:35:29;7.60;;;4.55;;
72388;SDS011;60566;48.062;9.930;2022-07-29T00:37:55;7.72;;;4.47;;
72388;SDS011;60566;48.062;9.930;2022-07-29T00:40:21;8.38;;;4.97;;
72388;SDS011;60566;48.062;9.930;2022-07-29T00:42:47;7.45;;;4.47;;
72388;SDS011;60566;48.062;9.930;2022-07-29T00:45:14;6.95;;;4.40;;
72388;SDS011;60566;48.062;9.930;2022-07-29T00:47:40;6.50;;;4.40;;
72388;SDS011;60566;48.062;9.930;2022-07-29T00:50:06;5.88;;;3.85;;
72388;SDS011;60566;48.062;9.930;2022-07-29T00:52:33;6.63;;;4.18;;
72388;SDS011;60566;48.062;9.930;2022-07-29T00:55:00;6.90;;;3.90;;
72388;SDS011;60566;48.062;9.930;2022-07-29T00:57:26;5.78;;;4.10;;
72388;SDS011;60566;48.062;9.930;2022-07-29T00:59:51;6.72;;;3.70;;
72388;SDS011;60566;48.062;9.930;2022-07-29T01:02:16;7.25;;;4.10;;
72388;SDS011;60566;48.062;9.930;2022-07-29T01:04:42;7.57;;;4.00;;
72388;SDS011;60566;48.062;9.930;2022-07-29T01:07:07;9.02;;;4.35;;
72388;SDS011;60566;48.062;9.930;2022-07-29T01:09:33;7.00;;;4.07;;
72388;SDS011;60566;48.062;9.930;2022-07-29T01:12:00;6.22;;;3.85;;
72388;SDS011;60566;48.062;9.930;2022-07-29T01:14:26;6.22;;;3.58;;
72388;SDS011;60566;48.062;9.930;2022-07-29T01:16:54;5.90;;;3.85;;
72388;SDS011;60566;48.062;9.930;2022-07-29T01:19:32;8.50;;;4.15;;
72388;SDS011;60566;48.062;9.930;2022-07-29T01:22:07;5.97;;;3.25;;
72388;SDS011;60566;48.062;9.930;2022-07-29T01:27:21;5.38;;;3.08;;
72388;SDS011;60566;48.062;9.930;2022-07-29T01:29:59;4.63;;;2.60;;
72388;SDS011;60566;48.062;9.930;2022-07-29T01:32:26;5.43;;;2.80;;
72388;SDS011;60566;48.062;9.930;2022-07-29T01:34:56;5.40;;;3.03;;
72388;SDS011;60566;48.062;9.930;2022-07-29T01:37:32;5.25;;;2.85;;
72388;SDS011;60566;48.062;9.930;2022-07-29T01:40:02;7.05;;;3.15;;
72388;SDS011;60566;48.062;9.930;2022-07-29T01:42:30;5.85;;;2.88;;
72388;SDS011;60566;48.062;9.930;2022-07-29T01:45:02;4.72;;;2.85;;
72388;SDS011;60566;48.062;9.930;2022-07-29T01:47:33;6.70;;;2.65;;
72388;SDS011;60566;48.062;9.930;2022-07-29T01:50:00;4.50;;;2.45;;
72388;SDS011;60566;48.062;9.930;2022-07-29T01:52:29;4.90;;;2.63;;
72388;SDS011;60566;48.062;9.930;2022-07-29T01:54:57;4.82;;;2.63;;
72388;SDS011;60566;48.062;9.930;2022-07-29T01:57:25;4.60;;;2.65;;
72388;SDS011;60566;48.062;9.930;2022-07-29T01:59:51;5.03;;;2.47;;
72388;SDS011;60566;48.062;9.930;2022-07-29T02:02:19;5.80;;;2.92;;
72388;SDS011;60566;48.062;9.930;2022-07-29T02:04:45;5.75;;;2.88;;
72388;SDS011;60566;48.062;9.930;2022-07-29T02:07:13;4.88;;;2.60;;
72388;SDS011;60566;48.062;9.930;2022-07-29T02:09:42;5.15;;;2.53;;
72388;SDS011;60566;48.062;9.930;2022-07-29T02:12:08;4.28;;;2.20;;
72388;SDS011;60566;48.062;9.930;2022-07-29T02:14:36;4.63;;;2.13;;
72388;SDS011;60566;48.062;9.930;2022-07-29T02:17:03;4.05;;;2.10;;
72388;SDS011;60566;48.062;9.930;2022-07-29T02:19:31;5.45;;;2.25;;
72388;SDS011;60566;48.062;9.930;2022-07-29T02:21:57;4.18;;;2.08;;
72388;SDS011;60566;48.062;9.930;2022-07-29T02:24:24;3.75;;;1.85;;
72388;SDS011;60566;48.062;9.930;2022-07-29T02:26:50;3.90;;;1.92;;
72388;SDS011;60566;48.062;9.930;2022-07-29T02:29:18;4.60;;;2.00;;
72388;SDS011;60566;48.062;9.930;2022-07-29T02:31:44;5.20;;;2.30;;
72388;SDS011;60566;48.062;9.930;2022-07-29T02:34:11;4.35;;;1.88;;
72388;SDS011;60566;48.062;9.930;2022-07-29T02:36:38;3.55;;;2.10;;
72388;SDS011;60566;48.062;9.930;2022-07-29T02:39:04;4.85;;;2.25;;
72388;SDS011;60566;48.062;9.930;2022-07-29T02:41:30;3.95;;;2.08;;
72388;SDS011;60566;48.062;9.930;2022-07-29T02:44:02;5.05;;;1.85;;
72388;SDS011;60566;48.062;9.930;2022-07-29T02:46:31;5.78;;;2.00;;
72388;SDS011;60566;48.062;9.930;2022-07-29T02:48:59;5.72;;;2.10;;
72388;SDS011;60566;48.062;9.930;2022-07-29T02:51:28;4.95;;;2.15;;
72388;SDS011;60566;48.062;9.930;2022-07-29T02:53:59;5.50;;;2.25;;
72388;SDS011;60566;48.062;9.930;2022-07-29T02:56:27;4.95;;;2.38;;
72388;SDS011;60566;48.062;9.930;2022-07-29T02:58:54;4.72;;;2.08;;
72388;SDS011;60566;48.062;9.930;2022-07-29T03:01:21;4.07;;;2.22;;
72388;SDS011;60566;48.062;9.930;2022-07-29T03:03:49;4.70;;;2.13;;
72388;SDS011;60566;48.062;9.930;2022-07-29T03:06:16;4.13;;;2.20;;
72388;SDS011;60566;48.062;9.930;2022-07-29T03:08:42;6.22;;;1.83;;
72388;SDS011;60566;48.062;9.930;2022-07-29T03:11:10;4.35;;;2.33;;
72388;SDS011;60566;48.062;9.930;2022-07-29T03:13:36;5.15;;;1.98;;
72388;SDS011;60566;48.062;9.930;2022-07-29T03:16:02;3.88;;;1.77;;
72388;SDS011;60566;48.062;9.930;2022-07-29T03:18:28;3.47;;;1.90;;
72388;SDS011;60566;48.062;9.930;2022-07-29T03:20:55;4.82;;;1.75;;
72388;SDS011;60566;48.062;9.930;2022-07-29T03:23:21;3.45;;;1.80;;
72388;SDS011;60566;48.062;9.930;2022-07-29T03:25:47;4.88;;;2.28;;
72388;SDS011;60566;48.062;9.930;2022-07-29T03:28:14;4.57;;;1.92;;
72388;SDS011;60566;48.062;9.930;2022-07-29T03:30:39;5.95;;;1.90;;
72388;SDS011;60566;48.062;9.930;2022-07-29T03:33:05;4.43;;;2.15;;
72388;SDS011;60566;48.062;9.930;2022-07-29T03:35:30;6.93;;;2.00;;
72388;SDS011;60566;48.062;9.930;2022-07-29T03:37:55;4.75;;;2.47;;
72388;SDS011;60566;48.062;9.930;2022-07-29T03:40:22;4.28;;;2.28;;
72388;SDS011;60566;48.062;9.930;2022-07-29T03:42:48;5.05;;;2.30;;
72388;SDS011;60566;48.062;9.930;2022-07-29T03:45:17;6.25;;;2.10;;
72388;SDS011;60566;48.062;9.930;2022-07-29T03:47:44;4.95;;;2.00;;
72388;SDS011;60566;48.062;9.930;2022-07-29T03:50:11;3.67;;;1.67;;
72388;SDS011;60566;48.062;9.930;2022-07-29T03:52:38;6.25;;;2.53;;
72388;SDS011;60566;48.062;9.930;2022-07-29T03:55:04;6.00;;;2.13;;
72388;SDS011;60566;48.062;9.930;2022-07-29T03:57:31;5.43;;;2.03;;
72388;SDS011;60566;48.062;9.930;2022-07-29T03:59:57;4.03;;;1.75;;
72388;SDS011;60566;48.062;9.930;2022-07-29T04:02:24;5.28;;;2.28;;
72388;SDS011;60566;48.062;9.930;2022-07-29T04:04:51;6.68;;;2.03;;
72388;SDS011;60566;48.062;9.930;2022-07-29T04:07:17;3.80;;;1.80;;
72388;SDS011;60566;48.062;9.930;2022-07-29T04:09:42;4.53;;;1.90;;
72388;SDS011;60566;48.062;9.930;2022-07-29T04:12:08;4.60;;;1.90;;
72388;SDS011;60566;48.062;9.930;2022-07-29T04:14:34;3.83;;;1.90;;
72388;SDS011;60566;48.062;9.930;2022-07-29T04:16:59;4.40;;;2.00;;
72388;SDS011;60566;48.062;9.930;2022-07-29T04:19:26;4.82;;;2.22;;
72388;SDS011;60566;48.062;9.930;2022-07-29T04:21:52;4.43;;;1.80;;
72388;SDS011;60566;48.062;9.930;2022-07-29T04:24:17;4.28;;;2.10;;
72388;SDS011;60566;48.062;9.930;2022-07-29T04:26:43;4.72;;;2.10;;
72388;SDS011;60566;48.062;9.930;2022-07-29T04:29:08;4.85;;;2.00;;
72388;SDS011;60566;48.062;9.930;2022-07-29T04:31:34;3.80;;;1.80;;
72388;SDS011;60566;48.062;9.930;2022-07-29T04:33:59;5.95;;;2.22;;
72388;SDS011;60566;48.062;9.930;2022-07-29T04:36:26;4.32;;;1.90;;
72388;SDS011;60566;48.062;9.930;2022-07-29T04:38:51;3.55;;;1.70;;
72388;SDS011;60566;48.062;9.930;2022-07-29T04:41:17;3.63;;;1.77;;
72388;SDS011;60566;48.062;9.930;2022-07-29T04:43:42;5.60;;;1.83;;
72388;SDS011;60566;48.062;9.930;2022-07-29T04:46:08;6.53;;;1.92;;
72388;SDS011;60566;48.062;9.930;2022-07-29T04:48:33;5.13;;;1.75;;
72388;SDS011;60566;48.062;9.930;2022-07-29T04:50:58;4.18;;;1.83;;
72388;SDS011;60566;48.062;9.930;2022-07-29T04:53:25;2.95;;;1.60;;
72388;SDS011;60566;48.062;9.930;2022-07-29T04:55:51;5.47;;;2.13;;
72388;SDS011;60566;48.062;9.930;2022-07-29T04:58:16;5.30;;;2.22;;
72388;SDS011;60566;48.062;9.930;2022-07-29T05:00:42;3.95;;;1.95;;
72388;SDS011;60566;48.062;9.930;2022-07-29T05:03:07;4.55;;;1.85;;
72388;SDS011;60566;48.062;9.930;2022-07-29T05:05:33;9.38;;;2.00;;
72388;SDS011;60566;48.062;9.930;2022-07-29T05:07:58;4.85;;;1.80;;
72388;SDS011;60566;48.062;9.930;2022-07-29T05:10:25;6.05;;;1.83;;
72388;SDS011;60566;48.062;9.930;2022-07-29T05:12:51;5.75;;;2.22;;
72388;SDS011;60566;48.062;9.930;2022-07-29T05:15:16;5.07;;;2.00;;
72388;SDS011;60566;48.062;9.930;2022-07-29T05:17:41;4.57;;;1.73;;
72388;SDS011;60566;48.062;9.930;2022-07-29T05:20:07;4.00;;;1.73;;
72388;SDS011;60566;48.062;9.930;2022-07-29T05:22:33;4.20;;;1.80;;
72388;SDS011;60566;48.062;9.930;2022-07-29T05:24:59;5.00;;;2.10;;
72388;SDS011;60566;48.062;9.930;2022-07-29T05:27:25;6.75;;;1.77;;
72388;SDS011;60566;48.062;9.930;2022-07-29T05:29:51;4.45;;;1.80;;
72388;SDS011;60566;48.062;9.930;2022-07-29T05:32:16;5.40;;;1.90;;
72388;SDS011;60566;48.062;9.930;2022-07-29T05:34:41;4.10;;;1.60;;
72388;SDS011;60566;48.062;9.930;2022-07-29T05:37:07;4.55;;;1.70;;
72388;SDS011;60566;48.062;9.930;2022-07-29T05:39:32;4.82;;;1.70;;
72388;SDS011;60566;48.062;9.930;2022-07-29T05:41:58;3.33;;;1.55;;
72388;SDS011;60566;48.062;9.930;2022-07-29T05:44:25;3.75;;;1.80;;
72388;SDS011;60566;48.062;9.930;2022-07-29T05:46:50;3.15;;;1.58;;
72388;SDS011;60566;48.062;9.930;2022-07-29T05:49:15;3.33;;;1.67;;
72388;SDS011;60566;48.062;9.930;2022-07-29T05:51:41;3.60;;;1.90;;
72388;SDS011;60566;48.062;9.930;2022-07-29T05:54:06;4.85;;;1.70;;
72388;SDS011;60566;48.062;9.930;2022-07-29T05:56:32;3.42;;;1.83;;
72388;SDS011;60566;48.062;9.930;2022-07-29T05:59:00;3.75;;;1.77;;
72388;SDS011;60566;48.062;9.930;2022-07-29T06:01:29;3.92;;;1.83;;
72388;SDS011;60566;48.062;9.930;2022-07-29T06:03:55;3.40;;;1.73;;
72388;SDS011;60566;48.062;9.930;2022-07-29T06:06:20;4.45;;;1.85;;
72388;SDS011;60566;48.062;9.930;2022-07-29T06:08:45;3.58;;;1.80;;
72388;SDS011;60566;48.062;9.930;2022-07-29T06:11:11;3.20;;;1.73;;
72388;SDS011;60566;48.062;9.930;2022-07-29T06:13:36;4.93;;;2.03;;
72388;SDS011;60566;48.062;9.930;2022-07-29T06:16:02;4.20;;;1.95;;
72388;SDS011;60566;48.062;9.930;2022-07-29T06:18:29;4.00;;;1.70;;
72388;SDS011;60566;48.062;9.930;2022-07-29T06:20:54;4.18;;;2.20;;
72388;SDS011;60566;48.062;9.930;2022-07-29T06:23:20;3.10;;;1.60;;
72388;SDS011;60566;48.062;9.930;2022-07-29T06:25:46;4.15;;;2.05;;
72388;SDS011;60566;48.062;9.930;2022-07-29T06:28:11;4.22;;;1.80;;
72388;SDS011;60566;48.062;9.930;2022-07-29T06:30:37;6.65;;;1.95;;
72388;SDS011;60566;48.062;9.930;2022-07-29T06:33:02;4.00;;;1.70;;
72388;SDS011;60566;48.062;9.930;2022-07-29T06:35:29;4.20;;;2.13;;
72388;SDS011;60566;48.062;9.930;2022-07-29T06:37:55;4.60;;;2.20;;
72388;SDS011;60566;48.062;9.930;2022-07-29T06:40:20;3.63;;;1.75;;
72388;SDS011;60566;48.062;9.930;2022-07-29T06:42:46;4.30;;;1.90;;
72388;SDS011;60566;48.062;9.930;2022-07-29T06:45:11;5.85;;;2.20;;
72388;SDS011;60566;48.062;9.930;2022-07-29T06:47:37;4.28;;;2.10;;
72388;SDS011;60566;48.062;9.930;2022-07-29T06:50:02;5.20;;;2.05;;
72388;SDS011;60566;48.062;9.930;2022-07-29T06:52:30;5.28;;;2.13;;
72388;SDS011;60566;48.062;9.930;2022-07-29T06:54:55;4.10;;;2.13;;
72388;SDS011;60566;48.062;9.930;2022-07-29T06:57:21;4.03;;;1.90;;
72388;SDS011;60566;48.062;9.930;2022-07-29T06:59:46;6.28;;;2.10;;
72388;SDS011;60566;48.062;9.930;2022-07-29T07:02:12;4.10;;;1.90;;
72388;SDS011;60566;48.062;9.930;2022-07-29T07:04:37;3.85;;;2.00;;
72388;SDS011;60566;48.062;9.930;2022-07-29T07:07:04;4.15;;;1.80;;
72388;SDS011;60566;48.062;9.930;2022-07-29T07:09:31;4.53;;;2.38;;
72388;SDS011;60566;48.062;9.930;2022-07-29T07:11:56;5.45;;;2.55;;
72388;SDS011;60566;48.062;9.930;2022-07-29T07:14:22;6.05;;;2.28;;
72388;SDS011;60566;48.062;9.930;2022-07-29T07:16:47;5.10;;;1.90;;
72388;SDS011;60566;48.062;9.930;2022-07-29T07:19:12;4.50;;;2.22;;
72388;SDS011;60566;48.062;9.930;2022-07-29T07:21:38;4.25;;;2.00;;
72388;SDS011;60566;48.062;9.930;2022-07-29T07:24:08;5.60;;;2.28;;
72388;SDS011;60566;48.062;9.930;2022-07-29T07:26:36;3.83;;;2.05;;
72388;SDS011;60566;48.062;9.930;2022-07-29T07:29:02;6.10;;;2.40;;
72388;SDS011;60566;48.062;9.930;2022-07-29T07:31:27;5.22;;;2.03;;
72388;SDS011;60566;48.062;9.930;2022-07-29T07:33:53;6.30;;;2.33;;
72388;SDS011;60566;48.062;9.930;2022-07-29T07:36:18;3.70;;;2.03;;
72388;SDS011;60566;48.062;9.930;2022-07-29T07:38:44;4.32;;;2.38;;
72388;SDS011;60566;48.062;9.930;2022-07-29T07:41:09;4.22;;;2.20;;
72388;SDS011;60566;48.062;9.930;2022-07-29T07:43:36;5.15;;;2.47;;
72388;SDS011;60566;48.062;9.930;2022-07-29T07:46:01;4.32;;;2.22;;
72388;SDS011;60566;48.062;9.930;2022-07-29T07:48:27;6.72;;;2.35;;
72388;SDS011;60566;48.062;9.930;2022-07-29T07:50:52;5.00;;;2.40;;
72388;SDS011;60566;48.062;9.930;2022-07-29T07:53:17;4.53;;;2.38;;
72388;SDS011;60566;48.062;9.930;2022-07-29T07:55:43;4.97;;;2.20;;
72388;SDS011;60566;48.062;9.930;2022-07-29T07:58:08;4.35;;;2.03;;
72388;SDS011;60566;48.062;9.930;2022-07-29T08:00:35;5.15;;;2.60;;
72388;SDS011;60566;48.062;9.930;2022-07-29T08:03:01;5.78;;;2.47;;
72388;SDS011;60566;48.062;9.930;2022-07-29T08:05:26;4.82;;;2.30;;
72388;SDS011;60566;48.062;9.930;2022-07-29T08:07:52;4.45;;;2.33;;
72388;SDS011;60566;48.062;9.930;2022-07-29T08:10:18;3.97;;;2.50;;
72388;SDS011;60566;48.062;9.930;2022-07-29T08:12:44;4.22;;;2.10;;
72388;SDS011;60566;48.062;9.930;2022-07-29T08:15:09;4.20;;;2.10;;
72388;SDS011;60566;48.062;9.930;2022-07-29T08:17:36;4.60;;;2.28;;
72388;SDS011;60566;48.062;9.930;2022-07-29T08:20:02;4.40;;;2.58;;
72388;SDS011;60566;48.062;9.930;2022-07-29T08:22:28;5.30;;;2.70;;
72388;SDS011;60566;48.062;9.930;2022-07-29T08:24:53;5.47;;;2.53;;
72388;SDS011;60566;48.062;9.930;2022-07-29T08:27:19;4.55;;;2.17;;
72388;SDS011;60566;48.062;9.930;2022-07-29T08:29:44;4.45;;;2.25;;
72388;SDS011;60566;48.062;9.930;2022-07-29T08:32:10;5.03;;;2.75;;
72388;SDS011;60566;48.062;9.930;2022-07-29T08:34:36;4.93;;;2.63;;
72388;SDS011;60566;48.062;9.930;2022-07-29T08:37:02;4.50;;;2.78;;
72388;SDS011;60566;48.062;9.930;2022-07-29T08:39:27;4.75;;;2.85;;
72388;SDS011;60566;48.062;9.930;2022-07-29T08:41:53;5.07;;;2.65;;
72388;SDS011;60566;48.062;9.930;2022-07-29T08:44:18;4.57;;;2.90;;
72388;SDS011;60566;48.062;9.930;2022-07-29T08:46:44;4.90;;;2.88;;
72388;SDS011;60566;48.062;9.930;2022-07-29T08:49:09;6.15;;;2.97;;
72388;SDS011;60566;48.062;9.930;2022-07-29T08:51:36;4.78;;;2.85;;
72388;SDS011;60566;48.062;9.930;2022-07-29T08:54:04;4.50;;;2.83;;
72388;SDS011;60566;48.062;9.930;2022-07-29T08:56:30;5.38;;;2.95;;
72388;SDS011;60566;48.062;9.930;2022-07-29T08:58:55;5.00;;;2.65;;
72388;SDS011;60566;48.062;9.930;2022-07-29T09:01:23;4.32;;;2.58;;
72388;SDS011;60566;48.062;9.930;2022-07-29T09:03:49;4.07;;;2.63;;
72388;SDS011;60566;48.062;9.930;2022-07-29T09:06:14;4.43;;;2.28;;
72388;SDS011;60566;48.062;9.930;2022-07-29T09:08:41;6.63;;;2.38;;
72388;SDS011;60566;48.062;9.930;2022-07-29T09:11:07;5.07;;;2.42;;
72388;SDS011;60566;48.062;9.930;2022-07-29T09:13:32;4.30;;;2.63;;
72388;SDS011;60566;48.062;9.930;2022-07-29T09:15:58;4.82;;;2.67;;
72388;SDS011;60566;48.062;9.930;2022-07-29T09:18:36;3.83;;;2.30;;
72388;SDS011;60566;48.062;9.930;2022-07-29T09:21:02;5.13;;;2.30;;
72388;SDS011;60566;48.062;9.930;2022-07-29T09:23:28;5.10;;;2.30;;
72388;SDS011;60566;48.062;9.930;2022-07-29T09:25:55;6.05;;;2.88;;
72388;SDS011;60566;48.062;9.930;2022-07-29T09:28:30;4.45;;;2.28;;
72388;SDS011;60566;48.062;9.930;2022-07-29T09:30:56;8.35;;;2.75;;
72388;SDS011;60566;48.062;9.930;2022-07-29T09:33:22;4.82;;;2.63;;
72388;SDS011;60566;48.062;9.930;2022-07-29T09:35:58;5.70;;;2.63;;
72388;SDS011;60566;48.062;9.930;2022-07-29T09:38:24;5.38;;;2.53;;
72388;SDS011;60566;48.062;9.930;2022-07-29T09:40:56;6.63;;;2.67;;
72388;SDS011;60566;48.062;9.930;2022-07-29T09:43:22;4.63;;;2.70;;
72388;SDS011;60566;48.062;9.930;2022-07-29T09:45:47;5.78;;;2.70;;
72388;SDS011;60566;48.062;9.930;2022-07-29T09:48:13;5.05;;;2.22;;
72388;SDS011;60566;48.062;9.930;2022-07-29T09:50:40;4.95;;;2.75;;
72388;SDS011;60566;48.062;9.930;2022-07-29T09:53:07;4.20;;;2.45;;
72388;SDS011;60566;48.062;9.930;2022-07-29T09:55:32;4.00;;;2.20;;
72388;SDS011;60566;48.062;9.930;2022-07-29T09:58:18;6.15;;;3.40;;
72388;SDS011;60566;48.062;9.930;2022-07-29T10:00:45;4.82;;;2.88;;
72388;SDS011;60566;48.062;9.930;2022-07-29T10:03:11;5.30;;;3.03;;
72388;SDS011;60566;48.062;9.930;2022-07-29T10:05:37;6.13;;;2.63;;
72388;SDS011;60566;48.062;9.930;2022-07-29T10:08:02;5.00;;;2.85;;
72388;SDS011;60566;48.062;9.930;2022-07-29T10:10:29;6.38;;;3.35;;
72388;SDS011;60566;48.062;9.930;2022-07-29T10:12:56;4.03;;;2.50;;
72388;SDS011;60566;48.062;9.930;2022-07-29T10:15:24;9.13;;;2.78;;
72388;SDS011;60566;48.062;9.930;2022-07-29T10:17:51;5.22;;;3.08;;
72388;SDS011;60566;48.062;9.930;2022-07-29T10:20:17;6.45;;;2.83;;
72388;SDS011;60566;48.062;9.930;2022-07-29T10:22:42;5.20;;;2.83;;
72388;SDS011;60566;48.062;9.930;2022-07-29T10:25:08;5.40;;;2.83;;
72388;SDS011;60566;48.062;9.930;2022-07-29T10:27:34;5.20;;;2.75;;
72388;SDS011;60566;48.062;9.930;2022-07-29T10:29:59;6.10;;;2.90;;
72388;SDS011;60566;48.062;9.930;2022-07-29T10:32:29;7.20;;;3.55;;
72388;SDS011;60566;48.062;9.930;2022-07-29T10:35:08;5.38;;;3.08;;
72388;SDS011;60566;48.062;9.930;2022-07-29T10:37:46;7.68;;;3.40;;
72388;SDS011;60566;48.062;9.930;2022-07-29T10:40:22;6.00;;;3.47;;
72388;SDS011;60566;48.062;9.930;2022-07-29T10:42:53;6.30;;;3.83;;
72388;SDS011;60566;48.062;9.930;2022-07-29T10:45:18;5.35;;;3.30;;
72388;SDS011;60566;48.062;9.930;2022-07-29T10:47:45;5.38;;;3.17;;
72388;SDS011;60566;48.062;9.930;2022-07-29T10:50:11;5.90;;;3.47;;
72388;SDS011;60566;48.062;9.930;2022-07-29T10:52:51;5.40;;;3.30;;
72388;SDS011;60566;48.062;9.930;2022-07-29T10:55:30;5.25;;;3.33;;
72388;SDS011;60566;48.062;9.930;2022-07-29T10:58:10;5.32;;;3.13;;
72388;SDS011;60566;48.062;9.930;2022-07-29T11:00:36;7.38;;;3.38;;
72388;SDS011;60566;48.062;9.930;2022-07-29T11:03:03;6.47;;;3.65;;
72388;SDS011;60566;48.062;9.930;2022-07-29T11:05:28;5.80;;;3.60;;
72388;SDS011;60566;48.062;9.930;2022-07-29T11:10:44;6.28;;;3.88;;
72388;SDS011;60566;48.062;9.930;2022-07-29T11:13:09;6.35;;;3.67;;
72388;SDS011;60566;48.062;9.930;2022-07-29T11:18:19;5.18;;;3.20;;
72388;SDS011;60566;48.062;9.930;2022-07-29T11:20:45;5.05;;;2.95;;
72388;SDS011;60566;48.062;9.930;2022-07-29T11:23:19;5.30;;;3.25;;
72388;SDS011;60566;48.062;9.930;2022-07-29T11:25:47;6.10;;;3.20;;
72388;SDS011;60566;48.062;9.930;2022-07-29T11:28:47;7.53;;;3.42;;
72388;SDS011;60566;48.062;9.930;2022-07-29T11:31:15;5.80;;;3.42;;
72388;SDS011;60566;48.062;9.930;2022-07-29T11:33:41;6.22;;;3.55;;
72388;SDS011;60566;48.062;9.930;2022-07-29T11:36:07;6.70;;;3.50;;
72388;SDS011;60566;48.062;9.930;2022-07-29T11:38:33;8.95;;;3.40;;
72388;SDS011;60566;48.062;9.930;2022-07-29T11:43:47;5.75;;;3.33;;
72388;SDS011;60566;48.062;9.930;2022-07-29T11:46:13;5.40;;;3.40;;
72388;SDS011;60566;48.062;9.930;2022-07-29T11:48:40;5.25;;;3.28;;
72388;SDS011;60566;48.062;9.930;2022-07-29T11:51:08;5.10;;;2.85;;
72388;SDS011;60566;48.062;9.930;2022-07-29T11:53:34;4.60;;;2.88;;
72388;SDS011;60566;48.062;9.930;2022-07-29T11:56:00;5.15;;;2.88;;
72388;SDS011;60566;48.062;9.930;2022-07-29T11:58:27;7.82;;;3.28;;
72388;SDS011;60566;48.062;9.930;2022-07-29T12:00:53;7.15;;;3.42;;
72388;SDS011;60566;48.062;9.930;2022-07-29T12:03:23;6.47;;;4.28;;
72388;SDS011;60566;48.062;9.930;2022-07-29T12:05:49;5.47;;;3.40;;
72388;SDS011;60566;48.062;9.930;2022-07-29T12:08:15;5.40;;;3.45;;
72388;SDS011;60566;48.062;9.930;2022-07-29T12:10:42;6.00;;;3.40;;
72388;SDS011;60566;48.062;9.930;2022-07-29T12:13:08;5.53;;;3.55;;
72388;SDS011;60566;48.062;9.930;2022-07-29T12:15:35;5.43;;;3.50;;
72388;SDS011;60566;48.062;9.930;2022-07-29T12:18:11;6.05;;;3.60;;
72388;SDS011;60566;48.062;9.930;2022-07-29T12:20:37;7.10;;;3.67;;
72388;SDS011;60566;48.062;9.930;2022-07-29T12:23:04;6.55;;;3.78;;
72388;SDS011;60566;48.062;9.930;2022-07-29T12:25:33;6.47;;;3.72;;
72388;SDS011;60566;48.062;9.930;2022-07-29T12:27:59;6.85;;;3.53;;
72388;SDS011;60566;48.062;9.930;2022-07-29T12:30:34;5.80;;;4.03;;
72388;SDS011;60566;48.062;9.930;2022-07-29T12:35:52;8.20;;;3.90;;
72388;SDS011;60566;48.062;9.930;2022-07-29T12:38:19;8.07;;;4.25;;
72388;SDS011;60566;48.062;9.930;2022-07-29T12:40:45;7.35;;;3.75;;
72388;SDS011;60566;48.062;9.930;2022-07-29T12:43:12;6.85;;;2.90;;
72388;SDS011;60566;48.062;9.930;2022-07-29T12:45:41;5.80;;;3.20;;
72388;SDS011;60566;48.062;9.930;2022-07-29T12:48:07;5.88;;;3.78;;
72388;SDS011;60566;48.062;9.930;2022-07-29T12:50:33;6.72;;;3.30;;
72388;SDS011;60566;48.062;9.930;2022-07-29T12:53:09;6.38;;;3.13;;
72388;SDS011;60566;48.062;9.930;2022-07-29T12:55:38;6.13;;;3.30;;
72388;SDS011;60566;48.062;9.930;2022-07-29T12:58:07;6.18;;;2.90;;
72388;SDS011;60566;48.062;9.930;2022-07-29T13:00:33;5.00;;;3.28;;
72388;SDS011;60566;48.062;9.930;2022-07-29T13:02:59;4.88;;;2.63;;
72388;SDS011;60566;48.062;9.930;2022-07-29T13:05:38;5.07;;;3.00;;
72388;SDS011;60566;48.062;9.930;2022-07-29T13:08:09;5.50;;;2.95;;
72388;SDS011;60566;48.062;9.930;2022-07-29T13:10:35;4.97;;;2.72;;
72388;SDS011;60566;48.062;9.930;2022-07-29T13:13:02;5.45;;;2.83;;
72388;SDS011;60566;48.062;9.930;2022-07-29T13:15:28;4.55;;;2.58;;
72388;SDS011;60566;48.062;9.930;2022-07-29T13:17:54;4.43;;;3.13;;
72388;SDS011;60566;48.062;9.930;2022-07-29T13:20:25;5.50;;;3.05;;
72388;SDS011;60566;48.062;9.930;2022-07-29T13:22:51;5.97;;;2.80;;
72388;SDS011;60566;48.062;9.930;2022-07-29T13:25:23;4.30;;;2.40;;
72388;SDS011;60566;48.062;9.930;2022-07-29T13:27:49;6.57;;;2.80;;
72388;SDS011;60566;48.062;9.930;2022-07-29T13:30:14;4.55;;;2.78;;
72388;SDS011;60566;48.062;9.930;2022-07-29T13:32:40;5.18;;;3.10;;
72388;SDS011;60566;48.062;9.930;2022-07-29T13:35:07;6.57;;;2.97;;
72388;SDS011;60566;48.062;9.930;2022-07-29T13:37:35;5.30;;;2.70;;
72388;SDS011;60566;48.062;9.930;2022-07-29T13:40:01;4.63;;;2.53;;
72388;SDS011;60566;48.062;9.930;2022-07-29T13:42:27;7.95;;;2.47;;
72388;SDS011;60566;48.062;9.930;2022-07-29T13:44:52;5.25;;;2.60;;
72388;SDS011;60566;48.062;9.930;2022-07-29T13:47:18;4.35;;;2.45;;
72388;SDS011;60566;48.062;9.930;2022-07-29T13:49:43;4.63;;;2.63;;
72388;SDS011;60566;48.062;9.930;2022-07-29T13:52:09;4.25;;;2.70;;
72388;SDS011;60566;48.062;9.930;2022-07-29T13:54:36;4.53;;;2.47;;
72388;SDS011;60566;48.062;9.930;2022-07-29T13:57:01;4.18;;;2.22;;
72388;SDS011;60566;48.062;9.930;2022-07-29T13:59:27;5.13;;;2.40;;
72388;SDS011;60566;48.062;9.930;2022-07-29T14:01:52;4.30;;;2.58;;
72388;SDS011;60566;48.062;9.930;2022-07-29T14:04:18;4.55;;;2.50;;
72388;SDS011;60566;48.062;9.930;2022-07-29T14:06:43;6.93;;;2.67;;
72388;SDS011;60566;48.062;9.930;2022-07-29T14:09:08;5.32;;;2.60;;
72388;SDS011;60566;48.062;9.930;2022-07-29T14:11:35;6.13;;;2.67;;
72388;SDS011;60566;48.062;9.930;2022-07-29T14:14:01;4.60;;;2.72;;
72388;SDS011;60566;48.062;9.930;2022-07-29T14:16:26;6.55;;;2.88;;
72388;SDS011;60566;48.062;9.930;2022-07-29T14:18:51;4.68;;;3.08;;
72388;SDS011;60566;48.062;9.930;2022-07-29T14:21:17;4.75;;;2.90;;
72388;SDS011;60566;48.062;9.930;2022-07-29T14:23:42;5.10;;;2.70;;
72388;SDS011;60566;48.062;9.930;2022-07-29T14:26:07;5.57;;;3.13;;
72388;SDS011;60566;48.062;9.930;2022-07-29T14:28:34;5.22;;;3.03;;
72388;SDS011;60566;48.062;9.930;2022-07-29T14:30:59;5.38;;;3.17;;
72388;SDS011;60566;48.062;9.930;2022-07-29T14:33:25;4.97;;;3.05;;
72388;SDS011;60566;48.062;9.930;2022-07-29T14:35:50;7.13;;;3.22;;
72388;SDS011;60566;48.062;9.930;2022-07-29T14:38:15;5.40;;;2.78;;
72388;SDS011;60566;48.062;9.930;2022-07-29T14:40:41;4.80;;;3.03;;
72388;SDS011;60566;48.062;9.930;2022-07-29T14:43:06;5.50;;;2.97;;
72388;SDS011;60566;48.062;9.930;2022-07-29T14:45:33;5.15;;;3.17;;
72388;SDS011;60566;48.062;9.930;2022-07-29T14:47:59;7.50;;;3.25;;
72388;SDS011;60566;48.062;9.930;2022-07-29T14:50:24;6.28;;;3.78;;
72388;SDS011;60566;48.062;9.930;2022-07-29T14:52:50;5.32;;;3.15;;
72388;SDS011;60566;48.062;9.930;2022-07-29T14:55:15;6.28;;;3.63;;
72388;SDS011;60566;48.062;9.930;2022-07-29T14:57:41;6.50;;;3.70;;
72388;SDS011;60566;48.062;9.930;2022-07-29T15:00:06;5.85;;;3.53;;